createdAt,value
2018-02-22T00:00:51.576Z,102697.06
2018-02-22T00:03:19.316Z,102695.49
2018-02-22T00:05:47.104Z,102691.77
2018-02-22T00:08:14.760Z,102691.03
2018-02-22T00:10:42.487Z,102686.88
2018-02-22T00:13:10.229Z,102694.23
2018-02-22T00:15:37.952Z,102692.13
2018-02-22T00:18:05.720Z,102700.73
2018-02-22T00:20:33.476Z,102691.61
2018-02-22T00:23:01.245Z,102693.48
2018-02-22T00:25:29.016Z,102687.69
2018-02-22T00:27:56.737Z,102682.64
2018-02-22T00:30:24.475Z,102680.86
2018-02-22T00:32:52.202Z,102682.88
2018-02-22T00:35:19.968Z,102688.23
2018-02-22T00:37:47.736Z,102685.56
2018-02-22T00:40:15.605Z,102683.84
2018-02-22T00:42:43.372Z,102681.59
2018-02-22T00:45:11.113Z,102687.58
2018-02-22T00:47:38.900Z,102682.56
2018-02-22T00:50:06.665Z,102683.40
2018-02-22T00:52:34.428Z,102677.37
2018-02-22T00:55:02.092Z,102679.44
2018-02-22T00:57:29.752Z,102673.05
2018-02-22T00:59:57.525Z,102671.39
2018-02-22T01:02:25.189Z,102667.17
2018-02-22T01:04:52.940Z,102668.01
2018-02-22T01:07:20.659Z,102674.33
2018-02-22T01:09:48.381Z,102664.51
2018-02-22T01:12:16.129Z,102666.91
2018-02-22T01:14:43.852Z,102663.77
2018-02-22T01:17:11.587Z,102660.22
2018-02-22T01:19:39.228Z,102656.69
2018-02-22T01:22:06.893Z,102659.63
2018-02-22T01:24:34.556Z,102660.91
2018-02-22T01:27:02.428Z,102665.13
2018-02-22T01:29:30.147Z,102664.73
2018-02-22T01:31:57.957Z,102661.73
2018-02-22T01:34:25.720Z,102655.75
2018-02-22T01:36:53.492Z,102652.80
2018-02-22T01:39:21.213Z,102651.14
2018-02-22T01:41:48.964Z,102651.47
2018-02-22T01:44:16.690Z,102651.83
2018-02-22T01:46:44.452Z,102650.94
2018-02-22T01:49:12.196Z,102653.11
2018-02-22T01:51:39.981Z,102650.25
2018-02-22T01:54:07.726Z,102654.14
2018-02-22T01:56:35.457Z,102649.09
2018-02-22T01:59:03.205Z,102644.81
2018-02-22T02:01:30.933Z,102646.92
2018-02-22T02:03:58.709Z,102649.03
2018-02-22T02:06:26.469Z,102646.42
2018-02-22T02:08:54.222Z,102645.65
2018-02-22T02:11:21.873Z,102646.63
2018-02-22T02:13:49.618Z,102643.63
2018-02-22T02:16:17.426Z,102641.43
2018-02-22T02:18:45.188Z,102640.88
2018-02-22T02:21:12.956Z,102634.73
2018-02-22T02:23:40.735Z,102635.75
2018-02-22T02:26:08.459Z,102634.96
2018-02-22T02:28:36.201Z,102635.00
2018-02-22T02:31:03.952Z,102635.91
2018-02-22T02:33:31.685Z,102638.70
2018-02-22T02:35:59.542Z,102639.05
2018-02-22T02:38:27.315Z,102633.95
2018-02-22T02:40:55.073Z,102635.81
2018-02-22T02:43:22.802Z,102638.56
2018-02-22T02:45:50.608Z,102635.27
2018-02-22T02:48:18.342Z,102632.19
2018-02-22T02:50:46.097Z,102624.42
2018-02-22T02:53:13.863Z,102627.27
2018-02-22T02:55:41.664Z,102624.90
2018-02-22T02:58:09.428Z,102632.02
2018-02-22T03:00:37.203Z,102629.12
2018-02-22T03:03:04.969Z,102630.59
2018-02-22T03:05:32.721Z,102630.27
2018-02-22T03:08:00.484Z,102634.63
2018-02-22T03:10:28.208Z,102625.84
2018-02-22T03:12:56.020Z,102627.01
2018-02-22T03:15:23.739Z,102629.36
2018-02-22T03:17:51.552Z,102627.94
2018-02-22T03:20:19.270Z,102637.84
2018-02-22T03:22:47.007Z,102634.95
2018-02-22T03:25:14.718Z,102631.23
2018-02-22T03:27:42.510Z,102631.23
2018-02-22T03:30:10.221Z,102631.02
2018-02-22T03:32:37.956Z,102626.27
2018-02-22T03:35:05.696Z,102628.17
2018-02-22T03:37:33.468Z,102631.68
2018-02-22T03:40:01.231Z,102633.58
2018-02-22T03:42:28.999Z,102624.84
2018-02-22T03:44:56.749Z,102627.24
2018-02-22T03:47:24.467Z,102629.11
2018-02-22T03:49:52.214Z,102622.41
2018-02-22T03:52:19.951Z,102618.67
2018-02-22T03:54:47.690Z,102619.11
2018-02-22T03:57:15.411Z,102629.76
2018-02-22T03:59:43.252Z,102626.05
2018-02-22T04:02:11.024Z,102626.97
2018-02-22T04:04:38.777Z,102629.08
2018-02-22T04:07:06.495Z,102629.38
2018-02-22T04:09:34.307Z,102628.48
2018-02-22T04:12:02.071Z,102628.98
2018-02-22T04:14:29.848Z,102626.58
2018-02-22T04:16:57.583Z,102628.80
2018-02-22T04:19:25.299Z,102626.78
2018-02-22T04:21:53.034Z,102624.88
2018-02-22T04:24:20.671Z,102623.42
2018-02-22T04:26:48.462Z,102624.37
2018-02-22T04:29:16.223Z,102620.69
2018-02-22T04:31:43.968Z,102621.28
2018-02-22T04:34:11.751Z,102617.95
2018-02-22T04:36:39.523Z,102616.29
2018-02-22T04:39:08.003Z,102618.84
2018-02-22T04:41:35.754Z,102621.87
2018-02-22T04:44:03.540Z,102620.95
2018-02-22T04:46:31.404Z,102613.23
2018-02-22T04:48:59.167Z,102622.17
2018-02-22T04:51:26.906Z,102619.56
2018-02-22T04:53:54.774Z,102621.33
2018-02-22T04:56:22.563Z,102618.84
2018-02-22T04:58:50.327Z,102619.38
2018-02-22T05:01:18.040Z,102619.43
2018-02-22T05:03:45.860Z,102617.70
2018-02-22T05:06:13.599Z,102615.55
2018-02-22T05:08:41.344Z,102618.93
2018-02-22T05:11:09.169Z,102611.57
2018-02-22T05:13:36.958Z,102614.56
2018-02-22T05:16:04.697Z,102610.44
2018-02-22T05:18:32.524Z,102611.33
2018-02-22T05:21:00.224Z,102606.67
2018-02-22T05:23:27.907Z,102605.34
2018-02-22T05:25:55.723Z,102608.78
2018-02-22T05:28:23.407Z,102609.61
2018-02-22T05:30:51.152Z,102610.50
2018-02-22T05:33:18.843Z,102615.99
2018-02-22T05:35:46.580Z,102609.91
2018-02-22T05:38:14.349Z,102615.55
2018-02-22T05:40:42.109Z,102615.10
2018-02-22T05:43:09.787Z,102616.49
2018-02-22T05:45:37.541Z,102616.69
2018-02-22T05:48:05.309Z,102622.05
2018-02-22T05:50:33.035Z,102615.82
2018-02-22T05:53:00.720Z,102616.80
2018-02-22T05:55:28.491Z,102622.02
2018-02-22T05:57:56.196Z,102625.94
2018-02-22T06:00:23.933Z,102621.12
2018-02-22T06:02:51.658Z,102618.88
2018-02-22T06:05:19.347Z,102617.59
2018-02-22T06:07:47.131Z,102624.36
2018-02-22T06:10:14.819Z,102626.47
2018-02-22T06:12:42.524Z,102621.81
2018-02-22T06:15:10.216Z,102618.70
2018-02-22T06:17:37.967Z,102625.53
2018-02-22T06:20:05.736Z,102618.56
2018-02-22T06:22:33.815Z,102619.78
2018-02-22T06:25:01.571Z,102620.61
2018-02-22T06:27:29.304Z,102617.58
2018-02-22T06:29:56.988Z,102623.91
2018-02-22T06:32:25.673Z,102623.52
2018-02-22T06:34:53.451Z,102617.08
2018-02-22T06:37:21.145Z,102623.52
2018-02-22T06:39:48.851Z,102620.22
2018-02-22T06:42:16.649Z,102616.45
2018-02-22T06:44:44.355Z,102621.55
2018-02-22T06:47:12.064Z,102619.24
2018-02-22T06:49:39.780Z,102625.12
2018-02-22T06:52:07.511Z,102623.96
2018-02-22T06:54:35.267Z,102620.67
2018-02-22T06:57:02.961Z,102626.36
2018-02-22T06:59:30.681Z,102624.81
2018-02-22T07:01:58.368Z,102627.71
2018-02-22T07:04:26.080Z,102626.69
2018-02-22T07:06:54.136Z,102632.59
2018-02-22T07:09:21.778Z,102635.84
2018-02-22T07:11:49.464Z,102635.66
2018-02-22T07:14:17.196Z,102635.47
2018-02-22T07:16:44.848Z,102631.92
2018-02-22T07:19:12.508Z,102643.67
2018-02-22T07:21:40.215Z,102636.27
2018-02-22T07:24:07.966Z,102637.98
2018-02-22T07:26:35.607Z,102644.81
2018-02-22T07:29:03.224Z,102642.35
2018-02-22T07:31:30.933Z,102646.69
2018-02-22T07:33:58.616Z,102638.63
2018-02-22T07:36:26.323Z,102641.78
2018-02-22T07:38:54.120Z,102646.64
2018-02-22T07:41:21.784Z,102642.03
2018-02-22T07:43:49.476Z,102639.63
2018-02-22T07:46:17.108Z,102640.66
2018-02-22T07:48:44.722Z,102629.86
2018-02-22T07:51:12.441Z,102634.33
2018-02-22T07:53:40.104Z,102636.25
2018-02-22T07:56:07.731Z,102639.75
2018-02-22T07:58:35.419Z,102642.06
2018-02-22T08:01:03.048Z,102645.20
2018-02-22T08:03:30.747Z,102636.76
2018-02-22T08:05:58.412Z,102643.34
2018-02-22T08:08:26.076Z,102637.48
2018-02-22T08:10:53.736Z,102637.98
2018-02-22T08:13:21.404Z,102643.54
2018-02-22T08:15:49.007Z,102647.95
2018-02-22T08:18:16.645Z,102645.91
2018-02-22T08:20:44.283Z,102642.08
2018-02-22T08:23:11.915Z,102644.92
2018-02-22T08:25:39.612Z,102643.20
2018-02-22T08:28:07.240Z,102639.52
2018-02-22T08:30:34.854Z,102637.05
2018-02-22T08:33:02.598Z,102644.09
2018-02-22T08:35:30.268Z,102646.30
2018-02-22T08:37:57.910Z,102635.08
2018-02-22T08:40:25.519Z,102633.66
2018-02-22T08:42:53.147Z,102633.91
2018-02-22T08:45:20.815Z,102632.13
2018-02-22T08:47:48.440Z,102638.27
2018-02-22T08:50:16.140Z,102631.62
2018-02-22T08:52:43.777Z,102636.08
2018-02-22T08:55:11.392Z,102634.16
2018-02-22T08:57:39.024Z,102633.99
2018-02-22T09:00:06.688Z,102640.61
2018-02-22T09:02:34.405Z,102638.86
2018-02-22T09:05:02.009Z,102631.50
2018-02-22T09:07:29.617Z,102637.41
2018-02-22T09:09:57.275Z,102637.32
2018-02-22T09:12:24.879Z,102634.97
2018-02-22T09:14:52.512Z,102636.86
2018-02-22T09:17:20.209Z,102635.53
2018-02-22T09:19:47.844Z,102633.30
2018-02-22T09:22:15.453Z,102630.45
2018-02-22T09:24:43.088Z,102628.70
2018-02-22T09:27:10.687Z,102637.31
2018-02-22T09:29:38.319Z,102629.97
2018-02-22T09:32:06.097Z,102635.80
2018-02-22T09:34:33.763Z,102644.98
2018-02-22T09:37:01.424Z,102638.79
2018-02-22T09:39:29.083Z,102640.55
2018-02-22T09:41:56.758Z,102641.41
2018-02-22T09:44:24.412Z,102641.48
2018-02-22T09:46:52.048Z,102638.16
2018-02-22T09:49:19.736Z,102636.13
2018-02-22T09:51:47.363Z,102638.88
2018-02-22T09:54:14.991Z,102633.85
2018-02-22T09:56:42.724Z,102633.20
2018-02-22T09:59:10.328Z,102628.48
2018-02-22T10:01:37.956Z,102633.72
2018-02-22T10:04:05.573Z,102635.14
2018-02-22T10:06:33.208Z,102638.43
2018-02-22T10:09:00.853Z,102642.08
2018-02-22T10:11:28.496Z,102634.92
2018-02-22T10:13:56.159Z,102642.53
2018-02-22T10:16:23.828Z,102642.36
2018-02-22T10:18:51.487Z,102642.36
2018-02-22T10:21:19.120Z,102640.98
2018-02-22T10:23:46.728Z,102642.32
2018-02-22T10:26:14.371Z,102642.10
2018-02-22T10:28:42.044Z,102641.17
2018-02-22T10:31:09.695Z,102638.30
2018-02-22T10:33:37.303Z,102637.59
2018-02-22T10:36:04.926Z,102639.41
2018-02-22T10:38:32.556Z,102637.86
2018-02-22T10:41:00.181Z,102631.00
2018-02-22T10:43:27.907Z,102638.16
2018-02-22T10:45:55.581Z,102633.52
2018-02-22T10:48:23.220Z,102636.20
2018-02-22T10:50:50.869Z,102635.41
2018-02-22T10:53:18.564Z,102637.14
2018-02-22T10:55:46.171Z,102634.08
2018-02-22T10:58:13.803Z,102631.39
2018-02-22T11:00:47.080Z,102629.13
2018-02-22T11:03:14.710Z,102624.81
2018-02-22T11:05:42.315Z,102632.90
2018-02-22T11:08:11.509Z,102632.85
2018-02-22T11:10:39.273Z,102633.13
2018-02-22T11:13:06.928Z,102637.14
2018-02-22T11:15:34.595Z,102634.99
2018-02-22T11:18:02.206Z,102630.52
2018-02-22T11:20:29.920Z,102629.59
2018-02-22T11:22:57.584Z,102628.62
2018-02-22T11:25:25.244Z,102624.42
2018-02-22T11:27:52.860Z,102622.08
2018-02-22T11:30:20.510Z,102621.01
2018-02-22T11:32:48.232Z,102620.74
2018-02-22T11:35:15.865Z,102618.34
2018-02-22T11:37:43.476Z,102619.23
2018-02-22T11:40:11.115Z,102619.11
2018-02-22T11:42:38.733Z,102611.54
2018-02-22T11:45:06.446Z,102610.88
2018-02-22T11:47:34.052Z,102606.66
2018-02-22T11:50:01.777Z,102606.55
2018-02-22T11:52:29.391Z,102604.88
2018-02-22T11:54:57.101Z,102596.98
2018-02-22T11:57:24.708Z,102604.40
2018-02-22T11:59:52.340Z,102601.73
2018-02-22T12:02:19.992Z,102601.17
2018-02-22T12:04:47.648Z,102603.97
2018-02-22T12:07:15.308Z,102595.39
2018-02-22T12:09:42.912Z,102592.39
2018-02-22T12:12:10.636Z,102598.47
2018-02-22T12:14:38.296Z,102588.44
2018-02-22T12:17:05.928Z,102592.53
2018-02-22T12:19:33.535Z,102591.41
2018-02-22T12:22:01.164Z,102590.89
2018-02-22T12:24:28.784Z,102587.72
2018-02-22T12:26:56.411Z,102585.06
2018-02-22T12:29:24.075Z,102581.09
2018-02-22T12:31:51.727Z,102576.88
2018-02-22T12:34:19.328Z,102572.26
2018-02-22T12:36:46.969Z,102573.50
2018-02-22T12:39:14.576Z,102555.59
2018-02-22T12:41:42.286Z,102565.03
2018-02-22T12:44:09.939Z,102564.43
2018-02-22T12:46:37.604Z,102563.59
2018-02-22T12:49:05.273Z,102557.69
2018-02-22T12:51:32.932Z,102553.55
2018-02-22T12:54:00.559Z,102547.12
2018-02-22T12:56:28.176Z,102546.73
2018-02-22T12:58:55.924Z,102545.20
2018-02-22T13:01:23.681Z,102545.09
2018-02-22T13:03:51.316Z,102539.77
2018-02-22T13:06:18.920Z,102542.33
2018-02-22T13:08:46.575Z,102537.05
2018-02-22T13:11:14.234Z,102532.13
2018-02-22T13:13:41.864Z,102532.14
2018-02-22T13:16:09.472Z,102533.52
2018-02-22T13:18:37.129Z,102537.77
2018-02-22T13:21:04.740Z,102536.73
2018-02-22T13:23:32.443Z,102527.02
2018-02-22T13:26:00.114Z,102522.48
2018-02-22T13:28:27.768Z,102525.23
2018-02-22T13:30:55.431Z,102519.41
2018-02-22T13:33:34.991Z,102520.38
2018-02-22T13:36:02.620Z,102521.24
2018-02-22T13:38:41.972Z,102521.84
2018-02-22T13:41:09.609Z,102517.31
2018-02-22T13:43:37.267Z,102515.67
2018-02-22T13:46:04.972Z,102510.14
2018-02-22T13:48:44.507Z,102510.83
2018-02-22T13:51:12.173Z,102513.28
2018-02-22T13:53:39.790Z,102509.62
2018-02-22T13:56:07.424Z,102510.75
2018-02-22T13:58:35.155Z,102507.91
2018-02-22T14:01:14.598Z,102510.72
2018-02-22T14:03:42.217Z,102512.59
2018-02-22T14:06:09.924Z,102515.58
2018-02-22T14:08:43.528Z,102513.48
2018-02-22T14:11:11.193Z,102517.06
2018-02-22T14:13:38.809Z,102518.46
2018-02-22T14:16:06.441Z,102513.72
2018-02-22T14:18:34.076Z,102513.39
2018-02-22T14:21:01.713Z,102504.56
2018-02-22T14:23:29.395Z,102503.88
2018-02-22T14:25:57.059Z,102502.70
2018-02-22T14:28:24.719Z,102509.68
2018-02-22T14:30:52.383Z,102504.30
2018-02-22T14:33:19.992Z,102501.16
2018-02-22T14:35:47.709Z,102500.52
2018-02-22T14:38:15.381Z,102496.09
2018-02-22T14:40:43.035Z,102499.83
2018-02-22T14:43:10.696Z,102507.44
2018-02-22T14:45:38.372Z,102503.88
2018-02-22T14:48:06.024Z,102500.21
2018-02-22T14:50:33.688Z,102501.02
2018-02-22T14:53:01.325Z,102502.66
2018-02-22T14:55:29.022Z,102499.04
2018-02-22T14:57:56.679Z,102496.30
2018-02-22T15:00:24.339Z,102500.55
2018-02-22T15:02:52.008Z,102501.39
2018-02-22T15:05:19.672Z,102497.55
2018-02-22T15:07:47.334Z,102500.16
2018-02-22T15:10:14.993Z,102497.23
2018-02-22T15:12:42.629Z,102499.04
2018-02-22T15:15:10.240Z,102500.64
2018-02-22T15:17:37.976Z,102502.37
2018-02-22T15:20:05.612Z,102508.42
2018-02-22T15:22:33.235Z,102497.36
2018-02-22T15:25:00.840Z,102503.81
2018-02-22T15:27:28.479Z,102502.93
2018-02-22T15:29:56.201Z,102506.61
2018-02-22T15:32:23.960Z,102515.83
2018-02-22T15:34:51.602Z,102510.92
2018-02-22T15:37:19.900Z,102511.92
2018-02-22T15:39:47.564Z,102515.95
2018-02-22T15:42:15.219Z,102510.61
2018-02-22T15:44:42.861Z,102513.05
2018-02-22T15:47:10.486Z,102511.60
2018-02-22T15:49:38.207Z,102515.64
2018-02-22T15:52:05.821Z,102515.06
2018-02-22T15:54:33.452Z,102515.42
2018-02-22T15:57:01.056Z,102514.02
2018-02-22T15:59:28.687Z,102516.02
2018-02-22T16:01:56.320Z,102512.16
2018-02-22T16:04:23.952Z,102511.23
2018-02-22T16:06:51.648Z,102521.42
2018-02-22T16:09:19.314Z,102513.95
2018-02-22T16:11:46.973Z,102516.03
2018-02-22T16:14:14.640Z,102508.95
2018-02-22T16:16:42.258Z,102508.34
2018-02-22T16:19:09.913Z,102515.42
2018-02-22T16:21:37.519Z,102517.81
2018-02-22T16:24:05.155Z,102512.08
2018-02-22T16:26:32.844Z,102509.78
2018-02-22T16:29:00.476Z,102511.34
2018-02-22T16:31:28.115Z,102509.05
2018-02-22T16:33:55.728Z,102514.40
2018-02-22T16:36:23.363Z,102509.89
2018-02-22T16:38:51.055Z,102514.05
2018-02-22T16:41:18.719Z,102515.73
2018-02-22T16:43:46.380Z,102520.38
2018-02-22T16:46:14.048Z,102521.48
2018-02-22T16:48:41.655Z,102523.03
2018-02-22T16:51:09.284Z,102523.97
2018-02-22T16:53:36.932Z,102530.11
2018-02-22T16:56:04.600Z,102533.88
2018-02-22T16:58:32.261Z,102534.19
2018-02-22T17:00:59.924Z,102538.78
2018-02-22T17:03:27.580Z,102536.53
2018-02-22T17:05:55.243Z,102546.45
2018-02-22T17:08:22.917Z,102539.52
2018-02-22T17:10:50.556Z,102539.95
2018-02-22T17:13:18.231Z,102542.91
2018-02-22T17:15:45.882Z,102544.41
2018-02-22T17:18:13.511Z,102537.06
2018-02-22T17:20:41.124Z,102540.64
2018-02-22T17:23:08.756Z,102544.25
2018-02-22T17:25:35.806Z,102540.53
2018-02-22T17:28:09.164Z,102539.52
2018-02-22T17:30:42.359Z,102539.64
2018-02-22T17:33:09.984Z,102540.56
2018-02-22T17:35:38.401Z,102546.23
2018-02-22T17:38:06.840Z,102552.77
2018-02-22T17:40:40.208Z,102548.12
2018-02-22T17:43:07.852Z,102551.09
2018-02-22T17:45:35.471Z,102554.56
2018-02-22T17:48:03.229Z,102558.07
2018-02-22T17:50:31.400Z,102555.25
2018-02-22T17:52:59.232Z,102566.08
2018-02-22T17:55:26.855Z,102564.75
2018-02-22T17:57:54.485Z,102568.89
2018-02-22T18:00:22.103Z,102571.41
2018-02-22T18:02:49.733Z,102575.22
2018-02-22T18:05:17.341Z,102580.13
2018-02-22T18:07:45.040Z,102581.36
2018-02-22T18:10:12.705Z,102581.27
2018-02-22T18:12:40.336Z,102583.55
2018-02-22T18:15:07.949Z,102589.31
2018-02-22T18:17:35.580Z,102585.98
2018-02-22T18:20:03.193Z,102586.20
2018-02-22T18:22:30.824Z,102586.64
2018-02-22T18:24:58.433Z,102596.92
2018-02-22T18:27:26.036Z,102593.48
2018-02-22T18:29:53.668Z,102588.62
2018-02-22T18:32:21.284Z,102590.49
2018-02-22T18:34:48.920Z,102595.31
2018-02-22T18:37:21.968Z,102592.30
2018-02-22T18:39:49.599Z,102587.67
2018-02-22T18:42:21.238Z,102593.30
2018-02-22T18:44:54.493Z,102601.87
2018-02-22T18:47:22.187Z,102601.05
2018-02-22T18:49:49.825Z,102597.71
2018-02-22T18:52:17.457Z,102596.19
2018-02-22T18:54:45.106Z,102594.67
2018-02-22T18:57:12.800Z,102602.93
2018-02-22T18:59:40.504Z,102603.37
2018-02-22T19:02:08.111Z,102598.38
2018-02-22T19:04:35.744Z,102607.97
2018-02-22T19:07:03.500Z,102608.11
2018-02-22T19:09:31.239Z,102612.00
2018-02-22T19:11:58.898Z,102610.92
2018-02-22T19:14:26.513Z,102608.86
2018-02-22T19:16:54.253Z,102612.05
2018-02-22T19:19:21.955Z,102613.97
2018-02-22T19:21:49.673Z,102611.22
2018-02-22T19:24:17.284Z,102605.42
2018-02-22T19:26:45.104Z,102604.83
2018-02-22T19:29:12.788Z,102605.61
2018-02-22T19:31:41.294Z,102594.81
2018-02-22T19:34:09.017Z,102604.97
2018-02-22T19:36:36.672Z,102605.86
2018-02-22T19:39:04.281Z,102606.25
2018-02-22T19:41:32.108Z,102602.86
2018-02-22T19:43:59.864Z,102606.30
2018-02-22T19:46:27.598Z,102601.59
2018-02-22T19:48:55.400Z,102612.58
2018-02-22T19:51:23.160Z,102612.30
2018-02-22T19:53:50.875Z,102613.33
2018-02-22T19:56:18.591Z,102615.92
2018-02-22T19:58:46.361Z,102613.52
2018-02-22T20:01:14.051Z,102617.83
2018-02-22T20:03:41.803Z,102613.30
2018-02-22T20:06:09.548Z,102622.05
2018-02-22T20:08:37.256Z,102624.84
2018-02-22T20:11:04.949Z,102620.02
2018-02-22T20:13:32.656Z,102613.10
2018-02-22T20:16:00.413Z,102618.59
2018-02-22T20:18:28.100Z,102620.66
2018-02-22T20:20:55.788Z,102614.91
2018-02-22T20:23:23.596Z,102619.03
2018-02-22T20:25:51.368Z,102622.27
2018-02-22T20:28:19.080Z,102620.49
2018-02-22T20:30:46.763Z,102622.07
2018-02-22T20:33:14.466Z,102620.69
2018-02-22T20:35:42.223Z,102626.42
2018-02-22T20:38:10.208Z,102620.97
2018-02-22T20:40:37.896Z,102627.78
2018-02-22T20:43:05.600Z,102631.15
2018-02-22T20:45:33.283Z,102625.97
2018-02-22T20:48:01.007Z,102634.00
2018-02-22T20:50:28.696Z,102633.15
2018-02-22T20:52:58.216Z,102635.47
2018-02-22T20:55:35.871Z,102634.08
2018-02-22T20:58:03.584Z,102631.95
2018-02-22T21:00:31.280Z,102623.89
2018-02-22T21:02:59.084Z,102622.59
2018-02-22T21:05:26.769Z,102631.44
2018-02-22T21:07:54.480Z,102636.45
2018-02-22T21:10:22.208Z,102636.42
2018-02-22T21:12:49.968Z,102646.70
2018-02-22T21:15:17.669Z,102650.70
2018-02-22T21:17:45.392Z,102655.83
2018-02-22T21:20:13.103Z,102658.94
2018-02-22T21:22:40.788Z,102662.11
2018-02-22T21:25:08.587Z,102662.13
2018-02-22T21:27:36.275Z,102663.20
2018-02-22T21:30:04.012Z,102666.25
2018-02-22T21:32:31.776Z,102673.97
2018-02-22T21:34:59.540Z,102665.61
2018-02-22T21:37:27.303Z,102666.91
2018-02-22T21:39:55.042Z,102669.56
2018-02-22T21:42:22.836Z,102664.11
2018-02-22T21:44:50.548Z,102663.33
2018-02-22T21:47:18.241Z,102667.61
2018-02-22T21:49:46.032Z,102665.17
2018-02-22T21:52:13.801Z,102658.44
2018-02-22T21:54:41.573Z,102661.16
2018-02-22T21:57:09.268Z,102654.13
2018-02-22T21:59:36.987Z,102656.30
2018-02-22T22:02:04.700Z,102657.91
2018-02-22T22:04:32.419Z,102656.80
2018-02-22T22:07:00.183Z,102652.31
2018-02-22T22:09:27.953Z,102656.37
2018-02-22T22:11:55.712Z,102664.11
2018-02-22T22:14:23.403Z,102659.54
2018-02-22T22:16:51.109Z,102660.03
2018-02-22T22:19:18.804Z,102662.64
2018-02-22T22:21:46.513Z,102666.19
2018-02-22T22:24:14.195Z,102664.25
2018-02-22T22:26:41.905Z,102662.31
2018-02-22T22:29:09.661Z,102666.80
2018-02-22T22:31:37.423Z,102661.05
2018-02-22T22:34:05.100Z,102665.92
2018-02-22T22:36:32.861Z,102659.78
2018-02-22T22:39:00.620Z,102661.38
2018-02-22T22:41:28.310Z,102657.84
2018-02-22T22:43:56.016Z,102654.19
2018-02-22T22:46:23.702Z,102656.52
2018-02-22T22:48:51.413Z,102657.22
2018-02-22T22:51:19.106Z,102663.42
2018-02-22T22:53:46.900Z,102661.55
2018-02-22T22:56:14.606Z,102656.34
2018-02-22T22:58:42.341Z,102662.03
2018-02-22T23:01:10.101Z,102667.34
2018-02-22T23:03:37.816Z,102663.38
2018-02-22T23:06:05.524Z,102658.06
2018-02-22T23:08:33.240Z,102653.23
2018-02-22T23:11:00.951Z,102658.22
2018-02-22T23:13:28.655Z,102661.53
2018-02-22T23:15:56.380Z,102659.28
2018-02-22T23:18:24.091Z,102659.21
2018-02-22T23:20:51.809Z,102662.20
2018-02-22T23:23:19.544Z,102658.77
2018-02-22T23:25:47.220Z,102656.22
2018-02-22T23:28:14.899Z,102653.62
2018-02-22T23:30:42.621Z,102649.33
2018-02-22T23:33:10.308Z,102653.45
2018-02-22T23:35:38.020Z,102649.58
2018-02-22T23:38:05.709Z,102657.12
2018-02-22T23:40:49.260Z,102651.80
2018-02-22T23:43:16.939Z,102652.89
2018-02-22T23:45:44.675Z,102659.92
2018-02-22T23:48:12.365Z,102655.44
2018-02-22T23:50:40.145Z,102652.67
2018-02-22T23:53:07.839Z,102645.86
2018-02-22T23:55:35.543Z,102655.20
2018-02-22T23:58:03.229Z,102654.03
